createdAt,value
2023-04-19T00:01:29.608Z,56.11
2023-04-19T00:04:33.852Z,55.79
2023-04-19T00:07:36.627Z,55.68
2023-04-19T00:10:41.572Z,55.98
2023-04-19T00:13:43.968Z,56.28
2023-04-19T00:16:46.716Z,55.69
2023-04-19T00:19:49.124Z,55.25
2023-04-19T00:22:51.735Z,56.13
2023-04-19T00:25:53.989Z,55.95
2023-04-19T00:28:56.610Z,56.20
2023-04-19T00:31:59.039Z,56.77
2023-04-19T00:35:04.895Z,57.42
2023-04-19T00:38:07.757Z,58.16
2023-04-19T00:41:10.546Z,59.21
2023-04-19T00:44:13.328Z,60.15
2023-04-19T00:47:16.313Z,60.94
2023-04-19T00:50:18.760Z,61.78
2023-04-19T00:53:21.472Z,63.12
2023-04-19T00:56:24.197Z,64.02
2023-04-19T00:59:28.449Z,64.80
2023-04-19T01:02:31.540Z,68.00
2023-04-19T01:05:34.326Z,68.31
2023-04-19T01:08:36.662Z,67.58
2023-04-19T01:11:40.776Z,72.74
2023-04-19T01:14:44.931Z,71.33
2023-04-19T01:17:47.828Z,70.26
2023-04-19T01:20:50.327Z,69.84
2023-04-19T01:23:53.097Z,69.04
2023-04-19T01:26:55.603Z,73.88
2023-04-19T01:29:58.331Z,71.29
2023-04-19T01:33:02.071Z,70.72
2023-04-19T01:36:05.750Z,68.80
2023-04-19T01:39:10.874Z,67.58
2023-04-19T01:42:15.138Z,68.09
2023-04-19T01:45:17.672Z,68.33
2023-04-19T01:48:20.748Z,67.76
2023-04-19T01:51:23.501Z,66.18
2023-04-19T01:54:27.031Z,65.02
2023-04-19T01:57:29.349Z,64.80
2023-04-19T02:00:32.947Z,65.12
2023-04-19T02:03:40.359Z,65.24
2023-04-19T02:06:42.957Z,66.02
2023-04-19T02:09:45.571Z,65.19
2023-04-19T02:12:48.677Z,65.37
2023-04-19T02:15:51.398Z,65.68
2023-04-19T02:18:54.083Z,65.67
2023-04-19T02:21:57.852Z,65.97
2023-04-19T02:25:00.829Z,66.42
2023-04-19T02:28:03.615Z,66.77
2023-04-19T02:31:06.436Z,67.93
2023-04-19T02:34:10.471Z,68.62
2023-04-19T02:37:12.845Z,70.42
2023-04-19T02:40:16.097Z,72.08
2023-04-19T02:43:18.509Z,72.28
2023-04-19T02:46:21.143Z,72.80
2023-04-19T02:49:23.660Z,73.51
2023-04-19T02:52:26.986Z,75.02
2023-04-19T02:55:29.515Z,76.27
2023-04-19T02:58:33.094Z,77.61
2023-04-19T03:01:36.710Z,79.61
2023-04-19T03:04:39.534Z,80.70
2023-04-19T03:07:44.342Z,81.56
2023-04-19T03:10:47.846Z,81.92
2023-04-19T03:13:50.557Z,82.71
2023-04-19T03:16:53.211Z,84.33
2023-04-19T03:19:56.719Z,85.20
2023-04-19T03:23:00.333Z,85.25
2023-04-19T03:26:03.967Z,85.70
2023-04-19T03:29:07.125Z,86.35
2023-04-19T03:32:10.214Z,86.39
2023-04-19T03:35:12.773Z,86.24
2023-04-19T03:38:16.152Z,87.31
2023-04-19T03:41:19.763Z,87.45
2023-04-19T03:44:23.325Z,88.71
2023-04-19T03:47:26.036Z,89.42
2023-04-19T03:50:29.397Z,90.04
2023-04-19T03:53:32.893Z,90.83
2023-04-19T03:56:35.686Z,91.68
2023-04-19T03:59:39.036Z,92.66
2023-04-19T04:02:41.693Z,92.59
2023-04-19T04:05:44.827Z,93.12
2023-04-19T04:08:47.357Z,91.31
2023-04-19T04:11:50.086Z,90.26
2023-04-19T04:14:52.637Z,88.52
2023-04-19T04:17:56.438Z,87.70
2023-04-19T04:20:58.954Z,86.04
2023-04-19T04:24:02.115Z,86.24
2023-04-19T04:27:05.821Z,85.69
2023-04-19T04:30:09.116Z,84.46
2023-04-19T04:33:12.069Z,84.24
2023-04-19T04:36:15.359Z,82.83
2023-04-19T04:39:18.343Z,81.65
2023-04-19T04:42:21.639Z,81.54
2023-04-19T04:45:24.070Z,79.69
2023-04-19T04:48:26.913Z,78.84
2023-04-19T04:51:29.375Z,77.98
2023-04-19T04:54:32.418Z,77.08
2023-04-19T04:57:34.893Z,76.84
2023-04-19T05:00:37.956Z,77.33
2023-04-19T05:03:40.610Z,76.77
2023-04-19T05:06:44.538Z,76.57
2023-04-19T05:09:47.089Z,75.60
2023-04-19T05:12:51.717Z,74.73
2023-04-19T05:15:54.457Z,73.98
2023-04-19T05:18:57.334Z,73.02
2023-04-19T05:22:03.662Z,71.33
2023-04-19T05:25:07.147Z,69.70
2023-04-19T05:28:09.670Z,68.77
2023-04-19T05:31:13.125Z,67.75
2023-04-19T05:34:17.083Z,66.88
2023-04-19T05:37:21.359Z,65.16
2023-04-19T05:40:24.348Z,65.54
2023-04-19T05:43:27.164Z,63.23
2023-04-19T05:46:29.835Z,62.90
2023-04-19T05:49:32.784Z,61.14
2023-04-19T05:52:35.391Z,60.93
2023-04-19T05:55:38.834Z,59.42
2023-04-19T05:58:42.268Z,58.73
2023-04-19T06:01:45.319Z,57.74
2023-04-19T06:04:48.593Z,56.00
2023-04-19T06:07:55.737Z,54.71
2023-04-19T06:11:15.772Z,54.40
2023-04-19T06:14:27.505Z,52.97
2023-04-19T06:17:31.600Z,53.03
2023-04-19T06:20:34.065Z,54.79
2023-04-19T06:23:36.688Z,55.74
2023-04-19T06:26:39.043Z,57.14
2023-04-19T06:29:41.724Z,56.86
2023-04-19T06:32:44.281Z,54.95
2023-04-19T06:35:47.015Z,52.60
2023-04-19T06:38:50.179Z,50.36
2023-04-19T06:41:53.060Z,49.12
2023-04-19T06:44:57.158Z,47.87
2023-04-19T06:47:59.838Z,46.52
2023-04-19T06:51:02.288Z,41.96
2023-04-19T06:54:05.681Z,38.71
2023-04-19T06:57:08.110Z,37.65
2023-04-19T07:00:13.962Z,38.42
2023-04-19T07:03:16.358Z,37.21
2023-04-19T07:06:19.117Z,31.77
2023-04-19T07:09:21.449Z,28.75
2023-04-19T07:12:24.032Z,27.21
2023-04-19T07:15:26.380Z,24.59
2023-04-19T07:18:29.054Z,21.01
2023-04-19T07:21:33.523Z,18.87
2023-04-19T07:24:36.233Z,17.33
2023-04-19T07:27:38.670Z,16.79
2023-04-19T07:30:41.356Z,16.50
2023-04-19T07:33:44.513Z,15.65
2023-04-19T07:36:47.349Z,15.25
2023-04-19T07:39:49.648Z,15.90
2023-04-19T07:42:55.383Z,17.30
2023-04-19T07:45:57.893Z,17.30
2023-04-19T07:49:00.703Z,17.84
2023-04-19T07:52:03.500Z,20.57
2023-04-19T07:55:07.002Z,22.99
2023-04-19T07:58:09.394Z,25.99
2023-04-19T08:01:12.157Z,27.16
2023-04-19T08:04:15.323Z,25.69
2023-04-19T08:07:18.011Z,25.34
2023-04-19T08:10:22.354Z,26.44
2023-04-19T08:13:24.892Z,29.11
2023-04-19T08:17:10.813Z,29.13
2023-04-19T08:19:50.991Z,26.63
2023-04-19T08:22:54.328Z,26.33
2023-04-19T08:25:59.527Z,25.66
2023-04-19T08:29:02.449Z,26.32
2023-04-19T08:32:05.838Z,25.39
2023-04-19T08:35:08.770Z,25.43
2023-04-19T08:38:11.145Z,25.41
2023-04-19T08:41:14.244Z,25.89
2023-04-19T08:44:25.315Z,27.56
2023-04-19T08:47:42.196Z,27.40
2023-04-19T08:51:04.934Z,29.23
2023-04-19T08:54:08.401Z,29.30
2023-04-19T08:57:12.449Z,28.61
2023-04-19T09:00:16.077Z,30.31
2023-04-19T09:03:18.639Z,31.89
2023-04-19T09:06:22.353Z,32.74
2023-04-19T09:12:31.789Z,34.76
2023-04-19T09:15:38.609Z,33.03
2023-04-19T09:19:02.492Z,34.22
2023-04-19T09:22:14.739Z,34.87
2023-04-19T09:28:32.246Z,34.86
2023-04-19T09:31:50.840Z,34.16
2023-04-19T09:34:55.484Z,34.28
2023-04-19T09:38:05.739Z,33.77
2023-04-19T09:41:09.288Z,35.06
2023-04-19T09:44:44.622Z,37.26
2023-04-19T09:47:35.775Z,38.22
2023-04-19T09:50:59.007Z,37.31
2023-04-19T09:54:04.704Z,37.36
2023-04-19T09:57:08.322Z,38.54
2023-04-19T10:00:13.438Z,38.72
2023-04-19T10:03:16.727Z,38.69
2023-04-19T10:09:26.615Z,34.60
2023-04-19T10:12:52.235Z,35.44
2023-04-19T10:15:57.325Z,37.08
2023-04-19T10:19:15.522Z,37.65
2023-04-19T10:22:18.409Z,37.86
2023-04-19T10:25:27.881Z,38.67
2023-04-19T10:28:31.026Z,38.54
2023-04-19T10:31:33.719Z,39.40
2023-04-19T10:34:42.240Z,41.06
2023-04-19T10:38:03.378Z,41.20
2023-04-19T10:41:13.616Z,39.61
2023-04-19T10:44:18.327Z,39.69
2023-04-19T10:47:39.464Z,40.29
2023-04-19T10:50:58.447Z,40.17
2023-04-19T10:54:05.218Z,38.66
2023-04-19T10:57:08.843Z,37.81
2023-04-19T11:00:21.545Z,37.57
2023-04-19T11:03:43.440Z,36.38
2023-04-19T11:06:52.550Z,35.08
2023-04-19T11:09:55.302Z,35.24
2023-04-19T11:12:58.187Z,35.59
2023-04-19T11:16:00.902Z,35.93
2023-04-19T11:19:03.373Z,35.00
2023-04-19T11:22:06.021Z,35.33
2023-04-19T11:25:09.853Z,35.10
2023-04-19T11:28:17.358Z,33.85
2023-04-19T11:31:20.089Z,33.23
2023-04-19T11:34:23.490Z,34.89
2023-04-19T11:37:25.969Z,38.90
2023-04-19T11:40:28.829Z,40.75
2023-04-19T11:43:35.466Z,42.81
2023-04-19T11:46:38.237Z,44.32
2023-04-19T11:49:40.702Z,43.60
2023-04-19T11:52:48.922Z,43.83
2023-04-19T11:55:52.783Z,44.87
2023-04-19T11:58:57.703Z,44.97
2023-04-19T12:02:09.996Z,44.76
2023-04-19T12:05:13.938Z,44.83
2023-04-19T12:08:16.541Z,43.92
2023-04-19T12:11:21.577Z,43.09
2023-04-19T12:14:24.314Z,43.34
2023-04-19T12:17:27.097Z,44.43
2023-04-19T12:20:33.469Z,45.56
2023-04-19T12:23:36.102Z,46.97
2023-04-19T12:26:54.533Z,46.50
2023-04-19T12:29:58.556Z,46.56
2023-04-19T12:33:01.244Z,47.36
2023-04-19T12:36:03.965Z,48.01
2023-04-19T12:39:07.428Z,47.43
2023-04-19T12:42:10.252Z,46.15
2023-04-19T12:45:13.309Z,47.40
2023-04-19T12:48:15.930Z,48.95
2023-04-19T12:51:18.343Z,48.75
2023-04-19T12:54:21.205Z,48.65
2023-04-19T12:57:23.541Z,48.59
2023-04-19T13:00:26.416Z,47.36
2023-04-19T13:03:33.125Z,46.17
2023-04-19T13:06:36.282Z,45.65
2023-04-19T13:09:38.782Z,45.07
2023-04-19T13:12:41.588Z,45.47
2023-04-19T13:15:44.121Z,45.77
2023-04-19T13:18:46.955Z,45.50
2023-04-19T13:21:49.562Z,45.96
2023-04-19T13:24:52.341Z,45.85
2023-04-19T13:27:58.172Z,46.10
2023-04-19T13:31:00.867Z,45.24
2023-04-19T13:34:03.181Z,45.68
2023-04-19T13:37:07.478Z,45.23
2023-04-19T13:40:18.894Z,43.95
2023-04-19T13:43:22.509Z,44.15
2023-04-19T13:46:25.007Z,44.41
2023-04-19T13:49:27.732Z,49.75
2023-04-19T13:52:30.056Z,52.38
2023-04-19T13:55:32.904Z,54.12
2023-04-19T13:58:36.165Z,54.87
2023-04-19T14:01:38.872Z,54.94
2023-04-19T14:04:41.423Z,55.67
2023-04-19T14:07:43.808Z,55.80
2023-04-19T14:10:46.532Z,55.76
2023-04-19T14:13:48.920Z,55.89
2023-04-19T14:16:51.546Z,55.59
2023-04-19T14:19:53.922Z,53.71
2023-04-19T14:22:58.946Z,53.78
2023-04-19T14:26:01.991Z,54.13
2023-04-19T14:29:04.765Z,53.46
2023-04-19T14:32:23.480Z,53.23
2023-04-19T14:35:27.559Z,51.85
2023-04-19T14:38:29.983Z,52.50
2023-04-19T14:41:33.109Z,53.49
2023-04-19T14:44:35.886Z,53.20
2023-04-19T14:47:38.711Z,52.04
2023-04-19T14:50:41.218Z,51.48
2023-04-19T14:53:43.837Z,52.09
2023-04-19T14:56:46.928Z,52.75
2023-04-19T14:59:49.665Z,52.49
2023-04-19T15:02:52.076Z,53.32
2023-04-19T15:05:54.944Z,53.13
2023-04-19T15:08:57.936Z,53.13
2023-04-19T15:12:01.299Z,54.08
2023-04-19T15:15:04.016Z,55.38
2023-04-19T15:18:06.802Z,55.92
2023-04-19T15:21:09.102Z,55.57
2023-04-19T15:24:11.958Z,55.56
2023-04-19T15:27:14.276Z,56.17
2023-04-19T15:30:16.878Z,55.98
2023-04-19T15:33:19.416Z,54.49
2023-04-19T15:36:22.000Z,54.95
2023-04-19T15:39:24.765Z,55.27
2023-04-19T15:42:27.429Z,55.66
2023-04-19T15:45:29.660Z,55.79
2023-04-19T15:48:32.566Z,54.08
2023-04-19T15:51:35.344Z,54.26
2023-04-19T15:54:37.980Z,54.48
2023-04-19T15:57:40.269Z,55.06
2023-04-19T16:00:45.411Z,55.34
2023-04-19T16:03:48.613Z,55.53
2023-04-19T16:06:51.392Z,56.23
2023-04-19T16:09:54.182Z,56.54
2023-04-19T16:12:56.771Z,57.24
2023-04-19T16:15:59.967Z,58.26
2023-04-19T16:19:02.265Z,58.80
2023-04-19T16:22:05.530Z,59.79
2023-04-19T16:25:10.235Z,60.82
2023-04-19T16:28:12.814Z,61.13
2023-04-19T16:31:15.378Z,61.92
2023-04-19T16:34:19.048Z,62.68
2023-04-19T16:37:21.507Z,63.74
2023-04-19T16:40:24.340Z,64.36
2023-04-19T16:43:26.792Z,64.34
2023-04-19T16:46:29.487Z,64.54
2023-04-19T16:49:32.101Z,64.93
2023-04-19T16:52:35.693Z,65.60
2023-04-19T16:55:38.335Z,66.20
2023-04-19T16:58:41.161Z,66.78
2023-04-19T17:01:44.418Z,67.65
2023-04-19T17:04:47.461Z,68.31
2023-04-19T17:07:50.476Z,69.22
2023-04-19T17:10:53.164Z,69.17
2023-04-19T17:13:56.731Z,69.58
2023-04-19T17:16:59.592Z,70.17
2023-04-19T17:20:02.111Z,71.50
2023-04-19T17:23:04.935Z,72.88
2023-04-19T17:26:07.283Z,74.17
2023-04-19T17:29:10.071Z,75.62
2023-04-19T17:32:12.381Z,77.38
2023-04-19T17:35:15.150Z,79.01
2023-04-19T17:38:17.564Z,80.56
2023-04-19T17:41:20.460Z,81.35
2023-04-19T17:44:23.131Z,81.88
2023-04-19T17:47:25.880Z,82.49
2023-04-19T17:50:29.833Z,83.72
2023-04-19T17:53:32.496Z,84.71
2023-04-19T17:56:34.752Z,86.53
2023-04-19T17:59:37.393Z,86.90
2023-04-19T18:02:40.847Z,88.33
2023-04-19T18:05:43.644Z,88.33
2023-04-19T18:08:46.176Z,88.89
2023-04-19T18:11:48.837Z,89.64
2023-04-19T18:14:51.197Z,89.50
2023-04-19T18:17:53.883Z,89.53
2023-04-19T18:20:56.309Z,90.31
2023-04-19T18:23:59.068Z,90.69
2023-04-19T18:27:02.577Z,91.50
2023-04-19T18:30:06.580Z,91.95
2023-04-19T18:33:08.997Z,92.57
2023-04-19T18:36:11.690Z,92.33
2023-04-19T18:39:14.230Z,92.81
2023-04-19T18:42:17.079Z,92.86
2023-04-19T18:45:19.530Z,93.80
2023-04-19T18:48:22.932Z,93.82
2023-04-19T18:51:26.777Z,93.66
2023-04-19T18:54:29.510Z,94.39
2023-04-19T18:57:34.737Z,94.37
2023-04-19T19:00:38.002Z,94.73
2023-04-19T19:04:07.825Z,95.69
2023-04-19T19:07:14.417Z,96.36
2023-04-19T19:10:57.181Z,96.65
2023-04-19T19:13:48.365Z,97.36
2023-04-19T19:16:52.890Z,99.31
2023-04-19T19:19:55.871Z,99.95
2023-04-19T19:22:58.273Z,100.00
2023-04-19T19:26:01.242Z,100.00
2023-04-19T19:29:03.963Z,100.00
2023-04-19T19:32:09.069Z,100.00
2023-04-19T19:35:12.255Z,100.00
2023-04-19T19:38:14.865Z,100.00
2023-04-19T19:44:22.962Z,100.00
2023-04-19T19:47:27.602Z,100.00
2023-04-19T19:53:36.390Z,100.00
2023-04-19T19:56:53.806Z,100.00
2023-04-19T20:03:28.352Z,100.00
2023-04-19T20:07:25.367Z,100.00
2023-04-19T20:10:00.880Z,100.00
2023-04-19T20:13:05.988Z,100.00
2023-04-19T20:16:10.035Z,100.00
2023-04-19T20:19:13.207Z,100.00
2023-04-19T20:22:15.726Z,100.00
2023-04-19T20:25:18.547Z,100.00
2023-04-19T20:28:21.200Z,100.00
2023-04-19T20:31:24.220Z,100.00
2023-04-19T20:34:26.734Z,100.00
2023-04-19T20:37:30.664Z,100.00
2023-04-19T20:40:33.279Z,100.00
2023-04-19T20:43:36.388Z,100.00
2023-04-19T20:46:38.870Z,100.00
2023-04-19T20:49:41.473Z,100.00
2023-04-19T20:52:43.806Z,100.00
2023-04-19T20:55:46.793Z,100.00
2023-04-19T20:58:49.056Z,100.00
2023-04-19T21:01:51.732Z,100.00
2023-04-19T21:04:54.060Z,100.00
2023-04-19T21:07:56.624Z,100.00
2023-04-19T21:10:58.940Z,100.00
2023-04-19T21:14:01.591Z,100.00
2023-04-19T21:17:04.229Z,100.00
2023-04-19T21:20:12.191Z,100.00
2023-04-19T21:23:16.430Z,100.00
2023-04-19T21:26:18.998Z,100.00
2023-04-19T21:29:21.297Z,100.00
2023-04-19T21:32:23.937Z,100.00
2023-04-19T21:35:28.952Z,100.00
2023-04-19T21:38:31.504Z,100.00
2023-04-19T21:41:33.845Z,100.00
2023-04-19T21:44:36.426Z,100.00
2023-04-19T21:47:38.885Z,100.00
2023-04-19T21:50:41.538Z,100.00
2023-04-19T21:53:44.013Z,100.00
2023-04-19T21:56:46.625Z,100.00
2023-04-19T21:59:48.965Z,100.00
2023-04-19T22:02:51.698Z,100.00
2023-04-19T22:05:54.313Z,100.00
2023-04-19T22:08:57.020Z,100.00
2023-04-19T22:12:00.923Z,100.00
2023-04-19T22:15:03.490Z,100.00
2023-04-19T22:18:08.161Z,100.00
2023-04-19T22:21:11.173Z,100.00
2023-04-19T22:24:14.158Z,100.00
2023-04-19T22:27:18.125Z,100.00
2023-04-19T22:30:20.875Z,100.00
2023-04-19T22:33:23.199Z,100.00
2023-04-19T22:36:26.275Z,100.00
2023-04-19T22:39:28.683Z,100.00
2023-04-19T22:42:31.387Z,100.00
2023-04-19T22:45:33.781Z,100.00
2023-04-19T22:48:37.251Z,100.00
2023-04-19T22:51:42.452Z,100.00
2023-04-19T22:54:45.289Z,100.00
2023-04-19T22:57:47.625Z,100.00
2023-04-19T23:00:50.521Z,100.00
2023-04-19T23:03:52.788Z,100.00
2023-04-19T23:06:55.494Z,100.00
2023-04-19T23:09:57.852Z,100.00
2023-04-19T23:13:00.870Z,100.00
2023-04-19T23:16:03.696Z,100.00
2023-04-19T23:19:07.526Z,100.00
2023-04-19T23:22:09.906Z,100.00
2023-04-19T23:25:13.265Z,100.00
2023-04-19T23:28:15.771Z,100.00
2023-04-19T23:31:18.405Z,100.00
2023-04-19T23:34:20.989Z,100.00
2023-04-19T23:37:23.631Z,100.00
2023-04-19T23:40:32.086Z,100.00
2023-04-19T23:43:34.729Z,100.00
2023-04-19T23:46:37.162Z,100.00
2023-04-19T23:49:39.844Z,100.00
2023-04-19T23:52:42.516Z,100.00
2023-04-19T23:55:45.511Z,100.00
2023-04-19T23:58:47.921Z,100.00
